Time;durP1;ratioP1;P1;durP2;ratioP2;P2;SDS_P1;SDS_P2;PMS_P1;PMS_P2;Temp;Humidity;BMP_temperature;BMP_pressure;BME280_temperature;BME280_humidity;BME280_pressure;Samples;Min_cycle;Max_cycle;Signal;HPM_P1;HPM_P2
2023/01/25 00:00:28;;;;;;;27.55;16.70;;;1.50;99.90;;;;;;5049055;28;20488;-79
2023/01/25 00:02:54;;;;;;;31.05;17.30;;;1.30;99.90;;;;;;5042761;28;20041;-79
2023/01/25 00:05:20;;;;;;;29.48;17.00;;;1.30;99.90;;;;;;5047612;28;20051;-79
2023/01/25 00:07:45;;;;;;;29.45;17.38;;;1.30;99.90;;;;;;5042486;28;20045;-79
2023/01/25 00:10:11;;;;;;;32.50;17.05;;;1.30;99.90;;;;;;5036187;28;20052;-79
2023/01/25 00:12:36;;;;;;;28.30;17.00;;;1.10;99.90;;;;;;5044263;28;20408;-78
2023/01/25 00:15:11;;;;;;;33.10;18.35;;;1.30;99.90;;;;;;5032872;28;20044;-79
2023/01/25 00:17:37;;;;;;;32.95;18.33;;;1.30;99.90;;;;;;5047085;28;20545;-79
2023/01/25 00:20:03;;;;;;;31.30;17.52;;;1.30;99.90;;;;;;5038126;28;20037;-78
2023/01/25 00:22:29;;;;;;;29.52;16.15;;;1.30;99.90;;;;;;5043981;28;20467;-79
2023/01/25 00:24:54;;;;;;;31.23;17.60;;;1.30;99.90;;;;;;5046850;28;20472;-79
2023/01/25 00:27:20;;;;;;;30.50;17.45;;;1.20;99.90;;;;;;5044456;28;20041;-79
2023/01/25 00:29:49;;;;;;;32.40;16.38;;;1.20;99.90;;;;;;5042924;28;20120;-79
2023/01/25 00:32:20;;;;;;;32.70;17.45;;;1.20;99.90;;;;;;5042089;28;20131;-79
2023/01/25 00:34:48;;;;;;;34.92;17.70;;;1.20;99.90;;;;;;5039828;28;20468;-79
2023/01/25 00:37:23;;;;;;;34.95;18.48;;;1.20;99.90;;;;;;5045322;28;20028;-79
2023/01/25 00:39:49;;;;;;;33.22;19.33;;;1.40;99.90;;;;;;5041878;28;20060;-79
2023/01/25 00:42:16;;;;;;;32.35;18.60;;;1.20;99.90;;;;;;5045533;28;20116;-79
2023/01/25 00:44:41;;;;;;;29.55;17.15;;;1.20;99.90;;;;;;5050019;28;20172;-79
2023/01/25 00:47:09;;;;;;;34.30;19.13;;;1.10;99.90;;;;;;5052172;28;20154;-79
2023/01/25 00:49:35;;;;;;;34.75;18.77;;;1.20;99.90;;;;;;5031178;28;20079;-79
2023/01/25 00:52:00;;;;;;;32.70;18.63;;;1.20;99.90;;;;;;5050019;28;20049;-79
2023/01/25 00:54:26;;;;;;;33.83;19.38;;;1.20;99.90;;;;;;5050020;28;20076;-79
2023/01/25 00:56:52;;;;;;;36.47;19.83;;;1.20;99.90;;;;;;5049522;28;20115;-79
2023/01/25 00:59:19;;;;;;;37.20;19.20;;;1.20;99.90;;;;;;5046832;28;20040;-79
2023/01/25 01:01:48;;;;;;;34.70;19.10;;;1.20;99.90;;;;;;5045201;28;20038;-79
2023/01/25 01:04:17;;;;;;;35.75;18.95;;;1.10;99.90;;;;;;5048187;28;20156;-79
2023/01/25 01:06:43;;;;;;;36.33;20.40;;;1.10;99.90;;;;;;5029965;28;20408;-79
2023/01/25 01:09:14;;;;;;;34.17;18.95;;;1.10;99.90;;;;;;5046345;28;20033;-79
2023/01/25 01:11:40;;;;;;;36.95;20.85;;;1.20;99.90;;;;;;5049069;28;20053;-79
2023/01/25 01:14:06;;;;;;;37.47;21.00;;;1.10;99.90;;;;;;5047146;28;20037;-79
2023/01/25 01:16:31;;;;;;;34.80;19.65;;;1.10;99.90;;;;;;5044614;28;20154;-79
2023/01/25 01:18:57;;;;;;;35.60;19.67;;;1.00;99.90;;;;;;5049682;28;20033;-79
2023/01/25 01:21:23;;;;;;;41.70;21.60;;;1.00;99.90;;;;;;5045476;28;20092;-79
2023/01/25 01:23:49;;;;;;;37.15;20.55;;;1.00;99.90;;;;;;5041691;28;20045;-79
2023/01/25 01:26:20;;;;;;;35.30;18.63;;;1.00;99.90;;;;;;5049652;28;20037;-79
2023/01/25 01:28:47;;;;;;;41.80;21.48;;;1.00;99.90;;;;;;5042437;28;20034;-79
2023/01/25 01:31:18;;;;;;;38.97;20.48;;;1.00;99.90;;;;;;5045838;28;20095;-79
2023/01/25 01:33:47;;;;;;;42.83;21.40;;;1.00;99.90;;;;;;5049047;28;20511;-79
2023/01/25 01:36:16;;;;;;;38.85;21.70;;;1.10;99.90;;;;;;5041057;28;20073;-79
2023/01/25 01:38:43;;;;;;;40.58;22.17;;;1.00;99.90;;;;;;5053681;28;20519;-79
2023/01/25 01:41:09;;;;;;;41.03;21.58;;;1.00;99.90;;;;;;5043106;28;20479;-79
2023/01/25 01:43:36;;;;;;;45.05;22.30;;;1.00;99.90;;;;;;5042244;28;20522;-79
2023/01/25 01:46:07;;;;;;;42.75;23.00;;;1.00;99.90;;;;;;5041957;28;20403;-79
2023/01/25 01:48:59;;;;;;;43.70;22.42;;;1.00;99.90;;;;;;5049395;28;20072;-79
2023/01/25 01:51:42;;;;;;;39.20;20.90;;;1.00;99.90;;;;;;5044396;28;20484;-79
2023/01/25 01:54:10;;;;;;;41.25;22.90;;;1.00;99.90;;;;;;5044210;28;20041;-79
2023/01/25 01:56:53;;;;;;;43.33;22.33;;;1.00;99.90;;;;;;5050027;28;20048;-79
2023/01/25 01:59:21;;;;;;;41.92;21.83;;;1.10;99.90;;;;;;5042514;28;21798;-79
2023/01/25 02:01:46;;;;;;;44.08;21.88;;;1.10;99.90;;;;;;5035813;28;20108;-79
2023/01/25 02:04:14;;;;;;;39.58;21.10;;;1.10;99.90;;;;;;5056218;28;20069;-79
2023/01/25 02:06:58;;;;;;;42.45;22.20;;;1.10;99.90;;;;;;5044080;28;20049;-79
2023/01/25 02:09:26;;;;;;;44.70;23.35;;;1.10;99.90;;;;;;5050117;28;20041;-79
2023/01/25 02:11:54;;;;;;;40.90;22.23;;;1.10;99.90;;;;;;5040959;28;20056;-78
2023/01/25 02:14:20;;;;;;;42.28;22.38;;;1.10;99.90;;;;;;5048360;28;20045;-79
2023/01/25 02:16:45;;;;;;;44.03;23.08;;;1.10;99.90;;;;;;5045987;28;20045;-79
2023/01/25 02:19:28;;;;;;;42.58;22.77;;;1.10;99.90;;;;;;5048535;28;20040;-78
2023/01/25 02:21:56;;;;;;;43.35;23.40;;;1.10;99.90;;;;;;5040622;28;20087;-79
2023/01/25 02:24:30;;;;;;;40.83;21.30;;;1.10;99.90;;;;;;5047868;28;20487;-79
2023/01/25 02:26:59;;;;;;;42.83;22.50;;;1.10;99.90;;;;;;5044260;28;20048;-79
2023/01/25 02:29:28;;;;;;;42.10;22.60;;;1.10;99.90;;;;;;5037925;28;20039;-79
2023/01/25 02:32:05;;;;;;;45.35;23.50;;;1.10;99.90;;;;;;5046285;28;20446;-79
2023/01/25 02:34:30;;;;;;;43.88;23.08;;;1.70;99.90;;;;;;5040323;28;20498;-79
2023/01/25 02:36:57;;;;;;;43.33;21.92;;;1.10;99.90;;;;;;5046029;28;20045;-79
2023/01/25 02:39:25;;;;;;;45.97;23.58;;;1.10;99.90;;;;;;5048937;28;20061;-79
2023/01/25 02:41:51;;;;;;;42.40;22.45;;;1.10;99.90;;;;;;5043884;28;20041;-79
2023/01/25 02:44:24;;;;;;;45.88;23.15;;;1.00;99.90;;;;;;5049309;28;20371;-79
2023/01/25 02:46:49;;;;;;;46.00;23.90;;;1.00;99.90;;;;;;5063834;28;20041;-79
2023/01/25 02:49:16;;;;;;;47.15;23.25;;;1.00;99.90;;;;;;5050075;28;20112;-79
2023/01/25 02:51:45;;;;;;;46.08;24.52;;;1.00;99.90;;;;;;5046548;28;20053;-79
2023/01/25 02:54:12;;;;;;;45.17;22.92;;;1.00;99.90;;;;;;5045035;28;20049;-79
2023/01/25 02:56:41;;;;;;;47.75;24.52;;;0.90;99.90;;;;;;5045287;28;20041;-79
2023/01/25 02:59:09;;;;;;;50.20;25.70;;;0.90;99.90;;;;;;5035889;28;20049;-79
2023/01/25 03:01:39;;;;;;;46.35;24.08;;;0.90;99.90;;;;;;5060606;28;20071;-79
2023/01/25 03:04:05;;;;;;;48.42;25.42;;;0.90;99.90;;;;;;5047744;28;20079;-78
2023/01/25 03:06:32;;;;;;;50.22;24.88;;;0.90;99.90;;;;;;5031670;28;20041;-78
2023/01/25 03:08:58;;;;;;;49.72;24.95;;;0.90;99.90;;;;;;5039139;28;20072;-79
2023/01/25 03:11:26;;;;;;;48.20;24.95;;;0.90;99.90;;;;;;5027287;28;20065;-79
2023/01/25 03:13:52;;;;;;;45.75;24.95;;;0.90;99.90;;;;;;5045540;28;21281;-79
2023/01/25 03:16:18;;;;;;;45.95;24.33;;;0.90;99.90;;;;;;5036583;28;20045;-79
2023/01/25 03:18:44;;;;;;;50.95;24.77;;;0.90;99.90;;;;;;5042459;28;20044;-79
2023/01/25 03:21:16;;;;;;;51.85;27.13;;;0.90;99.90;;;;;;5049605;28;20119;-79
2023/01/25 03:23:43;;;;;;;49.58;24.10;;;0.80;99.90;;;;;;5048741;28;20065;-79
2023/01/25 03:26:15;;;;;;;49.65;24.98;;;0.80;99.90;;;;;;5047352;28;20065;-79
2023/01/25 03:28:41;;;;;;;52.42;25.75;;;0.80;99.90;;;;;;5044362;28;20091;-79
2023/01/25 03:31:09;;;;;;;46.65;24.45;;;0.80;99.90;;;;;;5046598;28;20029;-78
2023/01/25 03:33:38;;;;;;;51.67;26.25;;;0.80;99.90;;;;;;5046881;28;20492;-79
2023/01/25 03:36:04;;;;;;;51.55;26.75;;;0.80;99.90;;;;;;5043922;28;20045;-79
2023/01/25 03:38:30;;;;;;;52.53;25.75;;;0.80;99.90;;;;;;5042805;28;20123;-78
2023/01/25 03:40:56;;;;;;;57.13;27.42;;;1.40;99.90;;;;;;5048699;28;20116;-78
2023/01/25 03:43:22;;;;;;;53.78;26.23;;;0.80;99.90;;;;;;5043590;28;20407;-79
2023/01/25 03:45:59;;;;;;;50.38;26.80;;;0.80;99.90;;;;;;5042002;28;20041;-79
2023/01/25 03:48:27;;;;;;;53.55;27.02;;;1.00;99.90;;;;;;5042526;28;20037;-78
2023/01/25 03:50:55;;;;;;;55.97;28.63;;;0.80;99.90;;;;;;5043151;28;20037;-79
2023/01/25 03:53:29;;;;;;;57.20;27.90;;;0.80;99.90;;;;;;5047732;28;20138;-78
2023/01/25 03:56:07;;;;;;;58.30;29.67;;;0.80;99.90;;;;;;5046860;28;20123;-79
2023/01/25 03:58:33;;;;;;;53.55;26.75;;;0.80;99.90;;;;;;5045222;28;20059;-79
2023/01/25 04:01:00;;;;;;;60.88;28.40;;;0.80;99.90;;;;;;5047602;28;20044;-79
2023/01/25 04:03:26;;;;;;;56.00;26.48;;;1.00;99.90;;;;;;5040748;28;20111;-79
2023/01/25 04:05:53;;;;;;;55.83;28.25;;;0.80;99.90;;;;;;5038340;28;20042;-79
2023/01/25 04:08:20;;;;;;;61.50;30.17;;;0.80;99.90;;;;;;5042598;28;20044;-79
2023/01/25 04:10:59;;;;;;;60.47;28.73;;;0.80;99.90;;;;;;5043263;28;20391;-79
2023/01/25 04:13:27;;;;;;;62.28;27.38;;;0.80;99.90;;;;;;5045167;28;20032;-79
2023/01/25 04:15:53;;;;;;;56.67;28.27;;;0.80;99.90;;;;;;5042818;28;20073;-79
2023/01/25 04:18:19;;;;;;;57.97;29.05;;;0.70;99.90;;;;;;5042963;28;20060;-79
2023/01/25 04:20:45;;;;;;;57.65;27.75;;;0.70;99.90;;;;;;5050358;28;20757;-79
2023/01/25 04:23:11;;;;;;;57.92;28.80;;;0.70;99.90;;;;;;5046562;28;20045;-79
2023/01/25 04:25:37;;;;;;;54.20;27.33;;;0.60;99.90;;;;;;5043868;28;20041;-79
2023/01/25 04:28:04;;;;;;;59.83;29.30;;;0.60;99.90;;;;;;5046210;28;20043;-79
2023/01/25 04:30:32;;;;;;;57.50;27.48;;;0.50;99.90;;;;;;5049071;28;20049;-79
2023/01/25 04:33:05;;;;;;;57.33;28.27;;;0.40;99.90;;;;;;5030291;28;20045;-79
2023/01/25 04:35:31;;;;;;;56.25;27.02;;;0.40;99.90;;;;;;5043499;28;20049;-78
2023/01/25 04:37:58;;;;;;;54.55;26.98;;;0.40;99.90;;;;;;5048043;28;20048;-79
2023/01/25 04:40:24;;;;;;;59.72;28.50;;;0.40;99.90;;;;;;5041861;28;20041;-79
2023/01/25 04:42:50;;;;;;;54.35;26.30;;;0.40;99.90;;;;;;5049709;28;20475;-79
2023/01/25 04:45:16;;;;;;;61.55;29.75;;;0.40;99.90;;;;;;5050756;28;20033;-79
2023/01/25 04:47:42;;;;;;;53.00;27.23;;;0.40;99.90;;;;;;5042459;28;20057;-79
2023/01/25 04:50:08;;;;;;;55.13;26.88;;;0.50;99.90;;;;;;5049856;28;20033;-79
2023/01/25 04:52:33;;;;;;;54.40;27.08;;;0.40;99.90;;;;;;5050920;28;20086;-79
2023/01/25 04:54:59;;;;;;;57.97;27.65;;;0.40;99.90;;;;;;5050474;28;20207;-79
2023/01/25 04:57:25;;;;;;;58.28;29.50;;;0.40;99.90;;;;;;5048905;28;20106;-79
2023/01/25 04:59:53;;;;;;;56.42;27.17;;;0.40;99.90;;;;;;5039186;28;20119;-79
2023/01/25 05:02:19;;;;;;;55.40;27.77;;;0.40;99.90;;;;;;5056884;28;20120;-79
2023/01/25 05:04:44;;;;;;;55.22;27.27;;;0.60;99.90;;;;;;5044234;28;20047;-79
2023/01/25 05:07:10;;;;;;;58.75;26.48;;;0.40;99.90;;;;;;5048635;28;20071;-79
2023/01/25 05:09:36;;;;;;;59.80;28.65;;;0.40;99.90;;;;;;5042320;28;20038;-78
2023/01/25 05:12:02;;;;;;;62.50;28.50;;;0.40;99.90;;;;;;5042480;28;20147;-79
2023/01/25 05:14:27;;;;;;;56.88;27.35;;;0.40;99.90;;;;;;5046413;28;20083;-79
2023/01/25 05:16:53;;;;;;;53.13;26.48;;;-0.20;99.90;;;;;;5050049;28;20376;-79
2023/01/25 05:19:18;;;;;;;54.67;27.13;;;0.40;99.90;;;;;;5056333;28;20048;-79
2023/01/25 05:21:59;;;;;;;59.35;29.42;;;0.50;99.90;;;;;;5032008;28;20468;-79
2023/01/25 05:24:30;;;;;;;57.88;27.55;;;0.40;99.90;;;;;;5060303;28;20507;-78
2023/01/25 05:27:02;;;;;;;61.47;29.38;;;0.40;99.90;;;;;;5040829;28;20044;-78
2023/01/25 05:29:34;;;;;;;57.00;29.70;;;0.40;99.90;;;;;;5046571;28;20049;-78
2023/01/25 05:32:02;;;;;;;57.30;29.55;;;0.40;99.90;;;;;;5044062;28;20043;-78
2023/01/25 05:34:27;;;;;;;59.22;26.63;;;1.40;99.90;;;;;;5048889;28;20091;-78
2023/01/25 05:36:53;;;;;;;60.00;28.92;;;0.50;99.90;;;;;;5042417;28;20077;-78
2023/01/25 05:39:19;;;;;;;60.28;28.45;;;0.50;99.90;;;;;;5045190;28;20043;-78
2023/01/25 05:41:44;;;;;;;57.33;27.80;;;0.50;99.90;;;;;;5049431;28;20040;-79
2023/01/25 05:44:10;;;;;;;58.70;28.35;;;0.50;99.90;;;;;;5045948;28;20121;-79
2023/01/25 05:46:36;;;;;;;61.97;29.75;;;0.40;99.90;;;;;;5021650;28;20091;-79
2023/01/25 05:49:02;;;;;;;66.22;30.08;;;0.50;99.90;;;;;;5039211;28;20747;-79
2023/01/25 05:51:27;;;;;;;57.25;28.30;;;0.50;99.90;;;;;;5047314;28;20044;-78
2023/01/25 05:53:54;;;;;;;60.40;30.42;;;0.50;99.90;;;;;;5045211;28;20037;-79
2023/01/25 05:56:20;;;;;;;59.65;29.13;;;0.50;99.90;;;;;;5043860;28;20053;-78
2023/01/25 05:58:46;;;;;;;59.15;28.38;;;0.50;99.90;;;;;;5047769;28;20111;-79
2023/01/25 06:01:11;;;;;;;58.17;28.35;;;0.50;99.90;;;;;;5045009;28;20073;-78
2023/01/25 06:03:37;;;;;;;60.42;29.95;;;0.50;99.90;;;;;;5043754;28;20032;-78
2023/01/25 06:06:03;;;;;;;58.20;27.40;;;0.40;99.90;;;;;;5045849;28;20664;-78
2023/01/25 06:08:29;;;;;;;55.30;27.30;;;0.40;99.90;;;;;;5042592;28;20044;-79
2023/01/25 06:10:55;;;;;;;54.15;26.73;;;0.40;99.90;;;;;;5045000;28;20033;-79
2023/01/25 06:13:21;;;;;;;55.33;27.63;;;0.30;99.90;;;;;;5048392;28;20045;-78
2023/01/25 06:15:52;;;;;;;56.30;26.13;;;0.30;99.90;;;;;;5048978;28;20074;-78
2023/01/25 06:18:18;;;;;;;52.92;27.70;;;0.30;99.90;;;;;;5046511;28;20476;-79
2023/01/25 06:20:43;;;;;;;51.67;25.90;;;0.30;99.90;;;;;;5031906;28;20037;-78
2023/01/25 06:23:09;;;;;;;51.83;26.63;;;0.30;99.90;;;;;;5047031;28;20557;-78
2023/01/25 06:25:36;;;;;;;54.58;28.00;;;0.30;99.90;;;;;;5047190;28;20040;-78
2023/01/25 06:28:01;;;;;;;53.83;26.52;;;0.30;99.90;;;;;;5059990;28;20505;-78
2023/01/25 06:30:27;;;;;;;48.63;25.17;;;0.30;99.90;;;;;;5030877;28;20064;-78
2023/01/25 06:32:53;;;;;;;53.78;28.00;;;0.30;99.90;;;;;;5041809;28;20487;-79
2023/01/25 06:35:18;;;;;;;50.15;25.27;;;0.30;99.90;;;;;;5044079;28;20107;-78
2023/01/25 06:37:44;;;;;;;46.83;24.60;;;0.30;99.90;;;;;;5042797;28;20051;-78
2023/01/25 06:40:10;;;;;;;53.38;28.63;;;0.30;99.90;;;;;;5054873;28;20040;-78
2023/01/25 06:42:36;;;;;;;51.65;28.42;;;0.30;99.90;;;;;;5048575;28;20488;-78
2023/01/25 06:45:02;;;;;;;49.13;25.27;;;0.30;99.90;;;;;;5045443;28;20048;-78
2023/01/25 06:47:27;;;;;;;47.80;24.83;;;0.30;99.90;;;;;;5047237;28;20106;-78
2023/01/25 06:49:53;;;;;;;47.67;24.58;;;0.30;99.90;;;;;;5041750;28;20037;-79
2023/01/25 06:52:19;;;;;;;49.45;25.70;;;0.30;99.90;;;;;;5047182;28;20044;-79
2023/01/25 06:54:44;;;;;;;51.30;26.67;;;0.30;99.90;;;;;;5040532;28;20041;-80
2023/01/25 06:57:11;;;;;;;45.38;22.83;;;0.20;99.90;;;;;;5063169;28;20032;-80
2023/01/25 06:59:36;;;;;;;48.33;24.33;;;0.20;99.90;;;;;;5044719;28;20044;-78
2023/01/25 07:02:02;;;;;;;48.65;24.45;;;0.20;99.90;;;;;;5043726;28;20049;-78
2023/01/25 07:04:28;;;;;;;46.30;23.67;;;0.40;99.90;;;;;;5064085;28;20545;-79
2023/01/25 07:06:54;;;;;;;46.47;23.95;;;0.20;99.90;;;;;;5038846;28;20103;-79
2023/01/25 07:09:23;;;;;;;44.97;23.27;;;0.20;99.90;;;;;;5040756;28;20116;-79
2023/01/25 07:11:49;;;;;;;46.95;25.27;;;0.20;99.90;;;;;;5045272;28;20041;-77
2023/01/25 07:14:17;;;;;;;47.45;24.55;;;0.20;99.90;;;;;;5043146;28;20036;-78
2023/01/25 07:16:43;;;;;;;44.15;23.40;;;0.20;99.90;;;;;;5042101;28;20061;-78
2023/01/25 07:19:12;;;;;;;50.45;25.30;;;0.20;99.90;;;;;;5059327;28;20106;-77
2023/01/25 07:21:38;;;;;;;45.75;24.58;;;0.20;99.90;;;;;;5035942;28;20046;-80
2023/01/25 07:24:04;;;;;;;48.80;26.10;;;0.20;99.90;;;;;;5044500;28;20136;-79
2023/01/25 07:26:31;;;;;;;49.78;23.98;;;0.20;99.90;;;;;;5042044;28;20422;-78
2023/01/25 07:28:58;;;;;;;46.75;24.10;;;0.20;99.90;;;;;;5041698;28;20100;-78
2023/01/25 07:31:24;;;;;;;48.33;24.30;;;0.20;99.90;;;;;;5041856;28;20551;-78
2023/01/25 07:33:54;;;;;;;44.97;22.17;;;0.20;99.90;;;;;;5041756;28;20084;-78
2023/01/25 07:36:20;;;;;;;49.67;24.40;;;0.20;99.90;;;;;;5041412;28;20066;-78
2023/01/25 07:38:47;;;;;;;52.88;25.13;;;0.20;99.90;;;;;;5056274;28;20037;-77
2023/01/25 07:41:15;;;;;;;45.10;21.98;;;0.10;99.90;;;;;;5042730;28;20516;-78
2023/01/25 07:43:41;;;;;;;47.70;23.88;;;0.10;99.90;;;;;;5048263;28;20087;-77
2023/01/25 07:46:12;;;;;;;45.90;23.98;;;0.10;99.90;;;;;;5045660;28;20049;-78
2023/01/25 07:48:39;;;;;;;48.08;23.73;;;0.10;99.90;;;;;;5045774;28;20045;-78
2023/01/25 07:51:21;;;;;;;46.67;23.58;;;0.10;99.90;;;;;;5039416;28;20037;-77
2023/01/25 07:53:52;;;;;;;48.78;23.27;;;0.10;99.90;;;;;;5046684;28;20048;-77
2023/01/25 07:56:20;;;;;;;46.80;23.27;;;0.00;99.90;;;;;;5025767;28;20038;-77
2023/01/25 07:58:46;;;;;;;51.88;24.33;;;0.00;99.90;;;;;;5036317;28;20048;-78
2023/01/25 08:01:19;;;;;;;50.75;25.42;;;0.00;99.90;;;;;;5047238;28;20041;-77
2023/01/25 08:03:46;;;;;;;48.00;24.98;;;0.10;99.90;;;;;;5044657;28;20180;-78
2023/01/25 08:06:13;;;;;;;51.10;24.88;;;0.00;99.90;;;;;;5047840;28;20115;-78
2023/01/25 08:08:46;;;;;;;46.50;23.27;;;0.00;99.90;;;;;;5043725;28;20085;-78
2023/01/25 08:11:16;;;;;;;50.97;24.02;;;0.00;99.90;;;;;;5044452;28;20053;-78
2023/01/25 08:13:45;;;;;;;52.08;25.38;;;0.00;99.90;;;;;;5049362;28;20053;-78
2023/01/25 08:16:15;;;;;;;53.42;25.52;;;0.00;99.90;;;;;;5042848;28;20401;-78
2023/01/25 08:18:41;;;;;;;49.08;24.38;;;0.10;99.90;;;;;;5043995;28;20864;-78
2023/01/25 08:21:07;;;;;;;50.58;24.80;;;0.00;99.90;;;;;;5038554;28;20052;-78
2023/01/25 08:23:33;;;;;;;48.03;23.73;;;0.70;99.90;;;;;;5043775;28;20133;-77
2023/01/25 08:26:07;;;;;;;52.70;22.23;;;0.00;99.90;;;;;;5039768;28;20057;-78
2023/01/25 08:28:33;;;;;;;48.83;23.63;;;0.00;99.90;;;;;;5040420;28;20470;-78
2023/01/25 08:31:11;;;;;;;48.38;23.25;;;0.00;99.90;;;;;;5049403;28;20047;-79
2023/01/25 08:33:37;;;;;;;45.85;22.35;;;0.00;99.90;;;;;;5044236;28;20525;-78
2023/01/25 08:36:04;;;;;;;50.90;23.80;;;0.00;99.90;;;;;;5046850;28;20479;-78
2023/01/25 08:38:31;;;;;;;45.92;23.50;;;0.00;99.90;;;;;;5045573;28;20068;-79
2023/01/25 08:41:15;;;;;;;48.83;23.80;;;0.00;99.90;;;;;;5048818;28;20422;-79
2023/01/25 08:43:41;;;;;;;49.83;24.25;;;0.00;99.90;;;;;;5050699;28;20146;-78
2023/01/25 08:46:08;;;;;;;49.95;24.20;;;0.00;99.90;;;;;;5044073;28;20103;-79
2023/01/25 08:48:33;;;;;;;55.15;24.00;;;0.80;99.90;;;;;;5041897;28;20112;-78
2023/01/25 08:51:03;;;;;;;48.85;22.77;;;0.00;99.90;;;;;;5063171;28;20174;-77
2023/01/25 08:53:31;;;;;;;50.47;24.30;;;0.10;99.90;;;;;;5050774;28;20044;-77
2023/01/25 08:56:09;;;;;;;56.70;25.05;;;0.00;99.90;;;;;;5045130;28;20045;-78
2023/01/25 08:58:37;;;;;;;48.28;24.05;;;0.00;99.90;;;;;;5040633;28;20049;-78
2023/01/25 09:01:05;;;;;;;51.13;24.63;;;0.10;99.90;;;;;;5039196;28;20048;-77
2023/01/25 09:03:34;;;;;;;47.85;22.83;;;0.10;99.90;;;;;;5044311;28;20042;-79
2023/01/25 09:06:00;;;;;;;52.03;24.02;;;0.00;99.90;;;;;;5053121;28;20059;-78
2023/01/25 09:08:26;;;;;;;53.60;25.88;;;0.00;99.90;;;;;;5046226;28;20041;-77
2023/01/25 09:10:51;;;;;;;55.78;26.60;;;0.00;99.90;;;;;;5041506;28;20036;-78
2023/01/25 09:13:17;;;;;;;52.20;24.73;;;0.10;99.90;;;;;;5049106;28;20040;-78
2023/01/25 09:15:43;;;;;;;56.33;26.60;;;0.10;99.90;;;;;;5043484;28;20091;-77
2023/01/25 09:18:09;;;;;;;48.85;24.55;;;0.00;99.90;;;;;;5040293;28;20080;-77
2023/01/25 09:20:38;;;;;;;51.22;24.30;;;0.10;99.90;;;;;;5048841;28;20052;-78
2023/01/25 09:23:04;;;;;;;51.15;22.52;;;0.10;99.90;;;;;;5051570;28;20050;-78
2023/01/25 09:25:30;;;;;;;58.72;25.42;;;0.00;99.90;;;;;;5022310;28;20045;-77
2023/01/25 09:27:56;;;;;;;52.85;25.13;;;0.10;99.90;;;;;;5046696;28;20080;-78
2023/01/25 09:30:22;;;;;;;57.13;27.08;;;0.10;99.90;;;;;;5055083;28;20127;-77
2023/01/25 09:32:49;;;;;;;56.35;25.00;;;0.10;99.90;;;;;;5046118;28;20041;-77
2023/01/25 09:35:15;;;;;;;56.20;25.80;;;0.10;99.90;;;;;;5052126;28;20044;-78
2023/01/25 09:37:41;;;;;;;49.75;23.40;;;0.20;99.90;;;;;;5046255;28;20460;-77
2023/01/25 09:40:30;;;;;;;53.28;25.95;;;0.20;99.90;;;;;;5043527;28;20472;-77
2023/01/25 09:43:18;;;;;;;51.47;23.92;;;0.20;99.90;;;;;;5047504;28;20072;-78
2023/01/25 09:45:45;;;;;;;55.08;24.23;;;0.20;99.90;;;;;;5056946;28;20041;-77
2023/01/25 09:48:17;;;;;;;54.40;26.27;;;0.30;99.90;;;;;;5050506;28;20045;-77
2023/01/25 09:51:22;;;;;;;58.83;24.75;;;0.20;99.90;;;;;;5050489;28;20098;-78
2023/01/25 09:53:50;;;;;;;53.88;25.60;;;0.20;99.90;;;;;;5046555;28;20052;-78
2023/01/25 09:56:28;;;;;;;61.40;27.45;;;0.20;99.90;;;;;;5050289;28;20045;-77
2023/01/25 09:59:03;;;;;;;49.65;24.02;;;0.20;99.90;;;;;;5044100;28;20514;-77
2023/01/25 10:01:43;;;;;;;51.05;24.83;;;0.20;99.90;;;;;;5039252;28;20056;-77
2023/01/25 10:04:40;;;;;;;51.78;24.98;;;0.20;99.90;;;;;;5044084;28;20045;-77
2023/01/25 10:07:23;;;;;;;56.50;26.80;;;0.20;99.90;;;;;;5013436;28;20056;-77
2023/01/25 10:10:02;;;;;;;54.88;25.67;;;0.20;99.90;;;;;;5033129;28;20098;-78
2023/01/25 10:12:35;;;;;;;54.08;24.95;;;0.30;99.90;;;;;;5029466;28;20444;-77
2023/01/25 10:15:01;;;;;;;55.05;24.48;;;0.30;99.90;;;;;;5033788;28;20049;-78
2023/01/25 10:17:37;;;;;;;52.90;24.45;;;0.30;99.90;;;;;;5045494;28;20048;-77
2023/01/25 10:20:15;;;;;;;49.53;22.67;;;0.30;99.90;;;;;;5055460;28;20041;-77
2023/01/25 10:22:49;;;;;;;53.85;24.85;;;0.30;99.90;;;;;;5046058;28;20088;-78
2023/01/25 10:25:39;;;;;;;49.78;22.85;;;1.10;99.90;;;;;;5048311;28;20370;-79
2023/01/25 10:28:13;;;;;;;52.53;24.52;;;0.30;99.90;;;;;;5050375;28;20032;-77
2023/01/25 10:30:53;;;;;;;56.30;24.52;;;0.80;99.90;;;;;;5056078;28;20034;-79
2023/01/25 10:33:20;;;;;;;55.08;26.08;;;0.30;99.90;;;;;;5033153;28;20042;-79
2023/01/25 10:35:48;;;;;;;56.45;26.08;;;0.30;99.90;;;;;;5043007;28;20045;-77
2023/01/25 10:38:26;;;;;;;51.40;23.88;;;0.30;99.90;;;;;;5030017;28;20040;-78
2023/01/25 10:41:08;;;;;;;52.17;23.70;;;0.30;99.90;;;;;;5037518;28;20056;-78
2023/01/25 10:43:34;;;;;;;51.00;21.95;;;0.30;99.90;;;;;;5039783;28;20059;-78
2023/01/25 10:46:00;;;;;;;54.42;23.20;;;0.30;99.90;;;;;;5046168;28;20392;-78
2023/01/25 10:48:31;;;;;;;53.70;21.83;;;0.40;99.90;;;;;;5048541;28;20102;-78
2023/01/25 10:50:58;;;;;;;47.80;20.83;;;0.30;99.90;;;;;;5041218;28;20563;-78
2023/01/25 10:53:36;;;;;;;51.15;23.13;;;0.30;99.90;;;;;;5043763;28;20063;-78
2023/01/25 10:56:25;;;;;;;47.00;21.60;;;0.30;99.90;;;;;;5048471;28;20428;-78
2023/01/25 10:59:04;;;;;;;50.22;22.92;;;0.30;99.90;;;;;;5049365;28;20068;-78
2023/01/25 11:01:32;;;;;;;50.72;22.55;;;0.30;99.90;;;;;;5048832;28;20041;-78
2023/01/25 11:04:00;;;;;;;56.97;25.48;;;0.30;99.90;;;;;;5032239;28;20032;-78
2023/01/25 11:06:37;;;;;;;54.53;22.50;;;0.30;99.90;;;;;;5043853;28;20040;-78
2023/01/25 11:09:29;;;;;;;50.97;22.67;;;0.30;99.90;;;;;;5046868;28;20033;-77
2023/01/25 11:12:16;;;;;;;46.08;20.75;;;0.30;99.90;;;;;;5043166;28;20496;-77
2023/01/25 11:14:42;;;;;;;53.20;21.95;;;0.30;99.90;;;;;;5043745;28;20370;-78
2023/01/25 11:17:20;;;;;;;53.92;22.88;;;0.30;99.90;;;;;;5036085;28;20037;-77
2023/01/25 11:19:45;;;;;;;53.28;22.13;;;0.30;99.90;;;;;;5038672;28;20041;-78
2023/01/25 11:22:25;;;;;;;55.35;24.95;;;0.30;99.90;;;;;;5039608;28;20036;-78
2023/01/25 11:24:50;;;;;;;49.03;22.35;;;0.30;99.90;;;;;;5040787;28;20041;-78
2023/01/25 11:27:26;;;;;;;55.40;22.52;;;0.30;99.90;;;;;;5041529;28;20051;-77
2023/01/25 11:30:04;;;;;;;53.60;23.63;;;0.30;99.90;;;;;;5044180;28;20052;-78
2023/01/25 11:32:31;;;;;;;49.15;20.63;;;0.80;99.90;;;;;;5037153;28;20040;-78
2023/01/25 11:34:57;;;;;;;50.05;21.98;;;0.40;99.90;;;;;;5043035;28;20146;-77
2023/01/25 11:37:30;;;;;;;51.55;22.63;;;0.40;99.90;;;;;;5051613;28;20483;-77
2023/01/25 11:40:11;;;;;;;50.15;20.90;;;0.40;99.90;;;;;;5040482;28;20121;-77
2023/01/25 11:42:46;;;;;;;46.60;21.08;;;0.40;99.90;;;;;;5038229;28;20476;-78
2023/01/25 11:45:21;;;;;;;50.83;21.45;;;0.50;99.90;;;;;;5042589;28;20052;-78
2023/01/25 11:47:54;;;;;;;;;;;0.50;99.90;;;;;;5047435;28;20045;-78
2023/01/25 11:50:41;;;;;;;51.55;20.05;;;0.50;99.90;;;;;;5038162;28;19923;-78
2023/01/25 11:53:46;;;;;;;50.80;21.10;;;0.50;99.90;;;;;;5059602;28;20045;-78
2023/01/25 11:56:36;;;;;;;50.13;20.67;;;0.50;99.90;;;;;;4998571;28;20071;-78
2023/01/25 11:59:15;;;;;;;50.30;22.25;;;0.50;99.90;;;;;;5044848;28;20044;-78
2023/01/25 12:01:56;;;;;;;54.13;23.58;;;0.50;99.90;;;;;;5043191;28;20044;-77
2023/01/25 12:04:31;;;;;;;52.05;23.48;;;0.50;99.90;;;;;;5045805;28;20045;-78
2023/01/25 12:07:05;;;;;;;57.47;23.67;;;0.50;99.90;;;;;;5048995;28;20491;-78
2023/01/25 12:10:16;;;;;;;53.03;23.42;;;0.50;99.90;;;;;;5048412;28;20087;-77
2023/01/25 12:13:14;;;;;;;54.95;23.60;;;0.50;99.90;;;;;;5039906;28;20053;-78
2023/01/25 12:16:14;;;;;;;53.10;23.35;;;0.50;99.90;;;;;;5061479;28;20053;-78
2023/01/25 12:19:02;;;;;;;53.90;22.85;;;0.40;99.90;;;;;;5043159;28;20049;-78
2023/01/25 12:22:16;;;;;;;51.30;22.15;;;0.50;99.90;;;;;;5045696;28;20497;-78
2023/01/25 12:25:01;;;;;;;50.95;21.77;;;0.50;99.90;;;;;;4979635;28;20058;-79
2023/01/25 12:28:08;;;;;;;55.22;22.65;;;0.50;99.90;;;;;;5001696;28;20038;-79
2023/01/25 12:30:36;;;;;;;48.85;21.63;;;0.50;99.90;;;;;;4962685;28;20082;-80
2023/01/25 12:33:14;;;;;;;52.88;22.23;;;0.50;99.90;;;;;;4949262;28;20094;-79
2023/01/25 12:36:02;;;;;;;52.10;22.65;;;0.50;99.90;;;;;;4960820;28;20561;-79
2023/01/25 12:38:52;;;;;;;52.60;22.45;;;0.60;99.90;;;;;;4942725;28;20540;-79
2023/01/25 12:41:47;;;;;;;48.75;21.25;;;0.60;99.90;;;;;;4952977;28;20051;-79
2023/01/25 12:44:36;;;;;;;49.50;21.85;;;0.60;99.90;;;;;;4968596;28;20510;-79
2023/01/25 12:47:21;;;;;;;48.88;20.65;;;0.70;99.90;;;;;;4953084;28;20049;-79
2023/01/25 12:50:14;;;;;;;49.10;20.70;;;0.70;99.90;;;;;;4965648;28;20169;-79
2023/01/25 12:52:56;;;;;;;49.97;21.30;;;0.80;99.90;;;;;;4960664;28;20126;-81
2023/01/25 12:55:22;;;;;;;54.95;21.73;;;0.80;99.90;;;;;;4946237;28;20091;-82